Liverpool, United Kingdom
Current Conditions -  °F | °C
As of 6:50 AM on Friday 28 Nov 2014 (Local Time) from EGGP Reporting Station
Broken Clouds Broken Clouds  
Wind Chill: 41°   Ceiling: 1200
Heat Index: 46°   Visibility: 6mi
Dew Point: 45°   Wind: 10mph
Humidity: 93%   Direction: 50°NE
Pressure: 29.62"   Gusts: NA
Location:  53.41°N, 2.98°W
Report Text: EGGP 280650Z 05009KT 9000 BKN012 08/07 Q1003
Loading
Personal Weather Stations






























Interactive Weather Map New forecast layout! Learn more

10-Day Weather Forecast

Advertisements
Track Severe Weather on mobile